Time;durP1;ratioP1;P1;durP2;ratioP2;P2;SDS_P1;SDS_P2;PMS_P1;PMS_P2;Temp;Humidity;BMP_temperature;BMP_pressure;BME280_temperature;BME280_humidity;BME280_pressure;Samples;Min_cycle;Max_cycle;Signal;HPM_P1;HPM_P2
2022/09/08 00:00:27;;;;;;;;;;;19.70;99.90;;;;;;8386253;28;21209;-72
2022/09/08 00:04:29;;;;;;;;;;;19.70;99.90;;;;;;8410964;28;19959;-72
2022/09/08 00:08:31;;;;;;;;;;;19.70;99.90;;;;;;8389775;28;19931;-73
2022/09/08 00:12:37;;;;;;;;;;;19.70;99.90;;;;;;8411869;28;19924;-72
2022/09/08 00:16:40;;;;;;;;;;;19.70;99.90;;;;;;8413108;28;20493;-72
2022/09/08 00:20:41;;;;;;;;;;;19.70;99.90;;;;;;8378809;28;19928;-72
2022/09/08 00:24:43;;;;;;;;;;;19.60;99.90;;;;;;8403654;28;20334;-72
2022/09/08 00:28:45;;;;;;;;;;;19.60;99.90;;;;;;8412810;28;19982;-72
2022/09/08 00:32:47;;;;;;;;;;;19.60;99.90;;;;;;8396275;28;20364;-73
2022/09/08 00:36:48;;;;;;;;;;;19.60;99.90;;;;;;8405648;28;19927;-72
2022/09/08 00:40:52;;;;;;;;;;;19.60;99.90;;;;;;8417737;28;19920;-73
2022/09/08 00:44:54;;;;;;;;;;;19.60;99.90;;;;;;8419646;28;21118;-73
2022/09/08 00:48:58;;;;;;;;;;;19.60;99.90;;;;;;8412936;28;20452;-72
2022/09/08 00:53:04;;;;;;;;;;;19.60;99.90;;;;;;8392328;28;19965;-72
2022/09/08 01:02:17;;;;;;;;;;;19.50;99.90;;;;;;8400249;28;20020;-73
2022/09/08 01:12:43;;;;;;;;;;;19.50;99.90;;;;;;8408686;28;20402;-72
2022/09/08 01:15:28;;;;;;;;;;;19.60;99.90;;;;;;8405416;28;20507;-73
2022/09/08 01:19:31;;;;;;;;;;;19.60;99.90;;;;;;8400055;28;19924;-73
2022/09/08 01:23:52;;;;;;;;;;;19.60;99.90;;;;;;8400183;28;20006;-73
2022/09/08 01:28:15;;;;;;;;;;;19.60;99.90;;;;;;8418648;28;20290;-73
2022/09/08 01:32:18;;;;;;;;;;;19.60;99.90;;;;;;8414955;28;19930;-73
2022/09/08 01:36:19;;;;;;;;;;;19.60;99.90;;;;;;8416684;28;20391;-73
2022/09/08 01:40:21;;;;;;;;;;;19.60;99.90;;;;;;8414410;28;19928;-73
2022/09/08 01:44:25;;;;;;;;;;;19.50;99.90;;;;;;8405838;28;19920;-73
2022/09/08 01:48:27;;;;;;;;;;;19.50;99.90;;;;;;8421110;28;19935;-73
2022/09/08 01:52:28;;;;;;;;;;;19.40;99.90;;;;;;8418061;28;19924;-73
2022/09/08 01:56:31;;;;;;;;;;;19.40;99.90;;;;;;8416114;28;19978;-73
2022/09/08 02:00:32;;;;;;;;;;;19.30;99.90;;;;;;8404498;28;19928;-73
2022/09/08 02:04:34;;;;;;;;;;;19.30;99.90;;;;;;8415840;28;20379;-73
2022/09/08 02:08:35;;;;;;;;;;;19.20;99.90;;;;;;8388235;28;19930;-73
2022/09/08 02:12:37;;;;;;;;;;;19.20;99.90;;;;;;8421599;28;20265;-74
2022/09/08 02:16:39;;;;;;;;;;;19.20;99.90;;;;;;8411448;28;20378;-73
2022/09/08 02:20:40;;;;;;;;;;;19.20;99.90;;;;;;8419781;28;19920;-73
2022/09/08 02:24:42;;;;;;;;;;;19.20;99.90;;;;;;8414181;28;19920;-73
2022/09/08 02:28:44;;;;;;;;;;;19.20;99.90;;;;;;8405353;28;19920;-73
2022/09/08 02:32:45;;;;;;;;;;;19.10;99.90;;;;;;8412834;28;20678;-72
2022/09/08 02:36:47;;;;;;;;;;;19.10;99.90;;;;;;8407112;28;19928;-73
2022/09/08 02:40:49;;;;;;;;;;;19.10;99.90;;;;;;8414774;28;19963;-72
2022/09/08 02:44:52;;;;;;;;;;;19.10;99.90;;;;;;8411350;28;19920;-73
2022/09/08 02:48:53;;;;;;;;;;;19.10;99.90;;;;;;8415223;28;20050;-72
2022/09/08 02:52:55;;;;;;;;;;;19.10;99.90;;;;;;8417872;28;19928;-73
2022/09/08 02:56:56;;;;;;;;;;;19.00;99.90;;;;;;8412213;28;20411;-73
2022/09/08 03:00:58;;;;;;;;;;;19.00;99.90;;;;;;8411645;28;20010;-73
2022/09/08 03:04:59;;;;;;;;;;;19.00;99.90;;;;;;8398460;28;19920;-73
2022/09/08 03:09:01;;;;;;;;;;;19.00;99.90;;;;;;8424117;28;20015;-73
2022/09/08 03:13:03;;;;;;;;;;;19.00;99.90;;;;;;8416121;28;19920;-73
2022/09/08 03:17:04;;;;;;;;;;;19.00;99.90;;;;;;8403612;28;19974;-73
2022/09/08 03:21:08;;;;;;;;;;;19.00;99.90;;;;;;8409981;28;19920;-73
2022/09/08 03:25:09;;;;;;;;;;;18.90;99.90;;;;;;8409141;28;19976;-72
2022/09/08 03:29:11;;;;;;;;;;;18.90;99.90;;;;;;8380900;28;20512;-73
2022/09/08 03:33:13;;;;;;;;;;;18.90;99.90;;;;;;8409862;28;20026;-73
2022/09/08 03:37:14;;;;;;;;;;;18.90;99.90;;;;;;8390656;28;20275;-73
2022/09/08 03:41:16;;;;;;;;;;;18.90;99.90;;;;;;8405935;28;19920;-73
2022/09/08 03:45:18;;;;;;;;;;;18.90;99.90;;;;;;8420852;28;19920;-72
2022/09/08 03:49:19;;;;;;;;;;;18.90;99.90;;;;;;8396191;28;19920;-73
2022/09/08 03:53:21;;;;;;;;;;;18.90;99.90;;;;;;8422208;28;20359;-73
2022/09/08 03:57:27;;;;;;;;;;;18.80;99.90;;;;;;8399143;28;20016;-73
2022/09/08 04:01:29;;;;;;;;;;;18.70;99.90;;;;;;8412946;28;20385;-73
2022/09/08 04:05:31;;;;;;;;;;;18.70;99.90;;;;;;8407240;28;19932;-73
2022/09/08 04:09:33;;;;;;;;;;;18.70;99.90;;;;;;8414636;28;20215;-73
2022/09/08 04:13:35;;;;;;;;;;;18.70;99.90;;;;;;8407064;28;19930;-73
2022/09/08 04:17:37;;;;;;;;;;;18.60;99.90;;;;;;8393617;28;19959;-72
2022/09/08 04:21:39;;;;;;;;;;;18.50;99.90;;;;;;8400087;28;19932;-72
2022/09/08 07:07:56;;;;;;;;;;;17.80;99.90;;;;;;8393888;28;19931;-72
2022/09/08 07:12:15;;;;;;;;;;;17.80;99.90;;;;;;8401140;28;19928;-71
2022/09/08 07:16:27;;;;;;;;;;;17.80;99.90;;;;;;8388886;28;20394;-71
2022/09/08 07:20:29;;;;;;;;;;;17.80;99.90;;;;;;8399031;28;20325;-72
2022/09/08 07:24:36;;;;;;;;;;;17.80;99.90;;;;;;8381966;28;20271;-72
2022/09/08 07:28:43;;;;;;;;;;;17.80;99.90;;;;;;8395743;28;20347;-72
2022/09/08 07:32:53;;;;;;;;;;;17.80;99.90;;;;;;8394442;28;19920;-72
2022/09/08 07:37:32;;;;;;;;;;;17.80;99.90;;;;;;8383807;28;19921;-72
2022/09/08 07:41:43;;;;;;;;;;;17.80;99.90;;;;;;8396370;28;19920;-73
2022/09/08 07:46:03;;;;;;;;;;;17.80;99.90;;;;;;8396448;28;19964;-72
2022/09/08 07:50:15;;;;;;;;;;;17.90;99.90;;;;;;8386742;28;19920;-72
2022/09/08 07:54:29;;;;;;;;;;;17.90;99.90;;;;;;8392537;28;20336;-73
2022/09/08 07:58:51;;;;;;;;;;;17.90;99.90;;;;;;8396861;28;19919;-72
2022/09/08 08:02:52;;;;;;;;;;;17.90;99.90;;;;;;8383397;28;19920;-73
2022/09/08 08:11:38;;;;;;;;;;;17.90;99.90;;;;;;8393993;28;19924;-73
2022/09/08 08:15:48;;;;;;;;;;;17.90;99.90;;;;;;8394109;28;19923;-73
2022/09/08 08:20:04;;;;;;;;;;;18.00;99.90;;;;;;8398466;28;19924;-72
2022/09/08 08:24:05;;;;;;;;;;;18.00;99.90;;;;;;8389347;28;20360;-73
2022/09/08 08:28:16;;;;;;;;;;;18.00;99.90;;;;;;8389283;28;19930;-73
2022/09/08 08:32:21;;;;;;;;;;;18.00;99.90;;;;;;8386281;28;20572;-73
2022/09/08 08:36:41;;;;;;;;;;;18.10;99.90;;;;;;8397974;28;19920;-73
2022/09/08 08:40:53;;;;;;;;;;;18.10;99.90;;;;;;8398201;28;19924;-74
2022/09/08 08:45:06;;;;;;;;;;;18.20;99.90;;;;;;8387785;28;19927;-73
2022/09/08 08:49:26;;;;;;;;;;;18.20;99.90;;;;;;8397977;28;19947;-73
2022/09/08 08:53:51;;;;;;;;;;;18.30;99.90;;;;;;8399044;28;19926;-74
2022/09/08 08:58:14;;;;;;;;;;;18.50;99.90;;;;;;8395008;28;19964;-74
2022/09/08 09:02:38;;;;;;;;;;;18.60;99.90;;;;;;8391854;28;19974;-74
2022/09/08 09:06:51;;;;;;;;;;;18.70;99.90;;;;;;8400073;28;20302;-73
2022/09/08 09:11:05;;;;;;;;;;;18.70;99.90;;;;;;8406304;28;20023;-73
2022/09/08 09:15:13;;;;;;;;;;;18.70;99.90;;;;;;8395950;28;20359;-73
2022/09/08 09:19:57;;;;;;;;;;;18.80;99.90;;;;;;8388681;28;19920;-73
2022/09/08 09:24:03;;;;;;;;;;;18.80;99.90;;;;;;8383917;28;20290;-73
2022/09/08 09:28:23;;;;;;;;;;;18.90;99.90;;;;;;8400174;28;19952;-75
2022/09/08 09:32:29;;;;;;;;;;;18.90;99.90;;;;;;8391538;28;20344;-74
2022/09/08 09:36:49;;;;;;;;;;;18.90;99.90;;;;;;8397890;28;19959;-73
2022/09/08 09:41:01;;;;;;;;;;;18.80;99.90;;;;;;8404355;28;20377;-73
2022/09/08 09:45:02;;;;;;;;;;;18.80;99.90;;;;;;8382375;28;20260;-73
2022/09/08 09:49:13;;;;;;;;;;;18.80;99.90;;;;;;8406206;28;19931;-73
2022/09/08 09:53:27;;;;;;;;;;;18.90;99.90;;;;;;8401930;28;19920;-74
2022/09/08 09:57:55;;;;;;;;;;;19.20;99.90;;;;;;8400610;28;20360;-74
2022/09/08 10:01:56;;;;;;;;;;;19.30;99.90;;;;;;8408547;28;20306;-73
2022/09/08 10:06:21;;;;;;;;;;;19.20;99.90;;;;;;8384200;28;19928;-73
2022/09/08 10:10:28;;;;;;;;;;;19.20;99.90;;;;;;8406004;28;19920;-73
2022/09/08 10:14:47;;;;;;;;;;;19.20;99.90;;;;;;8399551;28;19920;-73
2022/09/08 10:18:55;;;;;;;;;;;19.20;99.90;;;;;;8403177;28;19928;-73
2022/09/08 10:23:16;;;;;;;;;;;19.30;99.90;;;;;;8403027;28;19967;-73
2022/09/08 10:27:17;;;;;;;;;;;19.30;99.90;;;;;;8405692;28;19931;-73
2022/09/08 10:31:28;;;;;;;;;;;19.40;99.90;;;;;;8401916;28;20270;-74
2022/09/08 10:35:37;;;;;;;;;;;19.50;99.90;;;;;;8381598;28;19920;-73
2022/09/08 10:40:00;;;;;;;;;;;19.60;99.90;;;;;;8405101;28;19930;-73
2022/09/08 10:44:20;;;;;;;;;;;19.60;99.90;;;;;;8386175;28;19974;-73
2022/09/08 10:48:51;;;;;;;;;;;19.60;99.90;;;;;;8399883;28;20547;-73
2022/09/08 10:53:10;;;;;;;;;;;19.50;99.90;;;;;;8397554;28;20423;-74
2022/09/08 10:57:22;;;;;;;;;;;19.40;99.90;;;;;;8401412;28;19923;-73
2022/09/08 11:01:42;;;;;;;;;;;19.20;99.90;;;;;;8400797;28;19920;-73
2022/09/08 11:05:56;;;;;;;;;;;19.10;99.90;;;;;;8398814;28;20278;-73
2022/09/08 11:10:16;;;;;;;;;;;19.10;99.90;;;;;;8401260;28;20006;-73
2022/09/08 11:14:29;;;;;;;;;;;19.20;99.90;;;;;;8404820;28;19920;-73
2022/09/08 11:18:40;;;;;;;;;;;19.40;99.90;;;;;;8398443;28;19927;-74
2022/09/08 11:22:45;;;;;;;;;;;19.70;99.90;;;;;;8399759;28;19920;-73
2022/09/08 11:26:56;;;;;;;;;;;20.00;99.90;;;;;;8399339;28;19930;-73
2022/09/08 11:31:17;;;;;;;;;;;20.10;99.90;;;;;;8399554;28;19920;-73
2022/09/08 11:35:22;;;;;;;;;;;20.30;99.90;;;;;;8400602;28;19934;-73
2022/09/08 11:39:33;;;;;;;;;;;20.40;99.90;;;;;;8403267;28;19924;-72
2022/09/08 11:43:41;;;;;;;;;;;20.60;99.90;;;;;;8378510;28;19925;-73
2022/09/08 11:47:52;;;;;;;;;;;20.70;99.90;;;;;;8403526;28;19924;-73
2022/09/08 11:52:08;;;;;;;;;;;20.50;99.90;;;;;;8400547;28;19996;-73
2022/09/08 11:56:32;;;;;;;;;;;20.50;99.90;;;;;;8400022;28;20291;-73
2022/09/08 12:00:46;;;;;;;;;;;20.60;99.90;;;;;;8391434;28;19959;-73
2022/09/08 12:05:06;;;;;;;;;;;20.60;99.90;;;;;;8395273;28;19924;-73
2022/09/08 12:09:33;;;;;;;;;;;20.60;99.90;;;;;;8386881;28;20376;-73
2022/09/08 12:13:44;;;;;;;;;;;20.70;99.90;;;;;;8407081;28;19928;-73
2022/09/08 12:17:46;;;;;;;;;;;20.90;99.90;;;;;;8403467;28;20337;-73
2022/09/08 12:21:58;;;;;;;;;;;21.00;99.90;;;;;;8399620;28;20003;-73
2022/09/08 12:26:02;;;;;;;;;;;21.20;99.90;;;;;;8401672;28;19920;-73
2022/09/08 12:30:19;;;;;;;;;;;21.30;99.90;;;;;;8394416;28;19927;-73
2022/09/08 12:34:20;;;;;;;;;;;21.40;99.90;;;;;;8394297;28;23015;-73
2022/09/08 12:38:41;;;;;;;;;;;21.40;99.90;;;;;;8396583;28;19924;-73
2022/09/08 12:43:01;;;;;;;;;;;21.30;99.90;;;;;;8397058;28;19982;-73
2022/09/08 12:47:03;;;;;;;;;;;21.20;99.90;;;;;;8405411;28;19923;-72
2022/09/08 12:51:13;;;;;;;;;;;21.10;99.90;;;;;;8402260;28;19971;-73
2022/09/08 12:55:21;;;;;;;;;;;21.10;99.90;;;;;;8394853;28;19924;-73
2022/09/08 12:59:23;;;;;;;;;;;21.20;99.90;;;;;;8396506;28;19920;-73
2022/09/08 13:03:27;;;;;;;;;;;21.40;99.90;;;;;;8400068;28;20130;-73
2022/09/08 13:07:41;;;;;;;;;;;21.50;99.90;;;;;;8371310;28;19923;-74
2022/09/08 13:11:52;;;;;;;;;;;21.70;99.90;;;;;;8392826;28;19924;-72
2022/09/08 13:15:57;;;;;;;;;;;21.70;99.90;;;;;;8392892;28;19931;-72
2022/09/08 13:20:16;;;;;;;;;;;21.70;99.90;;;;;;8402442;28;20382;-72
2022/09/08 13:24:29;;;;;;;;;;;21.70;99.90;;;;;;8391574;28;19963;-72
2022/09/08 13:28:35;;;;;;;;;;;21.70;99.90;;;;;;8394758;28;20023;-73
2022/09/08 13:32:51;;;;;;;;;;;21.60;99.90;;;;;;8397959;28;19920;-73
2022/09/08 13:37:00;;;;;;;;;;;21.60;99.90;;;;;;8402034;28;19926;-73
2022/09/08 13:41:07;;;;;;;;;;;21.60;99.90;;;;;;8377786;28;19929;-72
2022/09/08 13:45:09;;;;;;;;;;;21.60;99.90;;;;;;8398483;28;19938;-73
2022/09/08 13:49:21;;;;;;;;;;;21.60;99.90;;;;;;8394501;28;19924;-73
2022/09/08 13:53:32;;;;;;;;;;;21.80;99.90;;;;;;8399312;28;20342;-72
2022/09/08 13:57:52;;;;;;;;;;;21.80;99.90;;;;;;8396111;28;20361;-73
2022/09/08 14:01:54;;;;;;;;;;;22.00;99.90;;;;;;8378591;28;19928;-73
2022/09/08 14:05:57;;;;;;;;;;;22.00;99.90;;;;;;8396492;28;19928;-73
2022/09/08 14:10:25;;;;;;;;;;;21.80;99.90;;;;;;8388816;28;20035;-72
2022/09/08 14:14:27;;;;;;;;;;;21.90;99.90;;;;;;8375678;28;19934;-73
2022/09/08 14:18:38;;;;;;;;;;;21.90;99.90;;;;;;8398831;28;21445;-73
2022/09/08 14:22:39;;;;;;;;;;;22.00;99.90;;;;;;8401060;28;19927;-72
2022/09/08 14:26:48;;;;;;;;;;;22.30;99.90;;;;;;8398706;28;19934;-73
2022/09/08 14:30:49;;;;;;;;;;;22.40;99.90;;;;;;8395524;28;19926;-73
2022/09/08 14:35:10;;;;;;;;;;;22.30;99.90;;;;;;8389323;28;19920;-73
2022/09/08 14:39:23;;;;;;;;;;;22.10;99.90;;;;;;8394098;28;19927;-73
2022/09/08 14:43:28;;;;;;;;;;;21.90;99.90;;;;;;8396798;28;19959;-73
2022/09/08 14:47:35;;;;;;;;;;;21.80;99.90;;;;;;8395543;28;20287;-72
2022/09/08 14:51:55;;;;;;;;;;;21.80;99.90;;;;;;8396701;28;19920;-73
2022/09/08 14:56:02;;;;;;;;;;;22.00;99.90;;;;;;8386641;28;20287;-73
2022/09/08 15:00:26;;;;;;;;;;;22.00;99.90;;;;;;8397394;28;19958;-72
2022/09/08 15:04:34;;;;;;;;;;;21.80;99.90;;;;;;8397694;28;19964;-73
2022/09/08 15:08:37;;;;;;;;;;;21.70;99.90;;;;;;8398171;28;19920;-73
2022/09/08 15:12:59;;;;;;;;;;;21.70;99.90;;;;;;8400049;28;19920;-73
2022/09/08 15:17:16;;;;;;;;;;;21.60;99.90;;;;;;8402803;28;19919;-73
2022/09/08 15:21:20;;;;;;;;;;;21.50;99.90;;;;;;8399768;28;19920;-73
2022/09/08 15:25:23;;;;;;;;;;;21.50;99.90;;;;;;8396267;28;20371;-73
2022/09/08 15:29:35;;;;;;;;;;;21.50;99.90;;;;;;8389528;28;19931;-73
2022/09/08 15:33:41;;;;;;;;;;;21.40;99.90;;;;;;8395095;28;20322;-72
2022/09/08 15:37:56;;;;;;;;;;;21.30;99.90;;;;;;8401575;28;20371;-72
2022/09/08 15:42:24;;;;;;;;;;;21.10;99.90;;;;;;8400088;28;19928;-73
2022/09/08 15:46:40;;;;;;;;;;;20.60;99.90;;;;;;8374729;28;19930;-72
2022/09/08 15:50:51;;;;;;;;;;;20.20;99.90;;;;;;8398098;28;19998;-72
2022/09/08 15:54:57;;;;;;;;;;;20.00;99.90;;;;;;8390944;28;19920;-72
2022/09/08 15:59:11;;;;;;;;;;;19.80;99.90;;;;;;8398710;28;19949;-72
2022/09/08 16:03:13;;;;;;;;;;;19.70;99.90;;;;;;8381610;28;19924;-73
2022/09/08 16:07:31;;;;;;;;;;;19.70;99.90;;;;;;8400738;28;19994;-73
2022/09/08 16:11:39;;;;;;;;;;;19.70;99.90;;;;;;8388494;28;20318;-73
2022/09/08 16:15:43;;;;;;;;;;;19.80;99.90;;;;;;8395274;28;20015;-73
2022/09/08 16:20:03;;;;;;;;;;;19.90;99.90;;;;;;8389276;28;20383;-73
2022/09/08 16:24:09;;;;;;;;;;;20.00;99.90;;;;;;8393844;28;20377;-72
2022/09/08 16:28:29;;;;;;;;;;;20.10;99.90;;;;;;8399325;28;20011;-72
2022/09/08 16:32:34;;;;;;;;;;;20.20;99.90;;;;;;8397926;28;19928;-73
2022/09/08 16:36:36;;;;;;;;;;;20.20;99.90;;;;;;8400974;28;20393;-73
2022/09/08 16:40:48;;;;;;;;;;;20.20;99.90;;;;;;8381129;28;19921;-73
2022/09/08 16:44:51;;;;;;;;;;;20.20;99.90;;;;;;8395928;28;19928;-72
2022/09/08 16:49:00;;;;;;;;;;;20.30;99.90;;;;;;8391128;28;19986;-73
2022/09/08 16:53:05;;;;;;;;;;;20.40;99.90;;;;;;8387914;28;20314;-73
2022/09/08 16:57:10;;;;;;;;;;;20.40;99.90;;;;;;8405517;28;19924;-72
2022/09/08 17:01:15;;;;;;;;;;;20.40;99.90;;;;;;8403861;28;19920;-72
2022/09/08 17:05:19;;;;;;;;;;;20.30;99.90;;;;;;8404583;28;19973;-73
2022/09/08 17:09:21;;;;;;;;;;;20.30;99.90;;;;;;8404693;28;19927;-72
2022/09/08 17:13:24;;;;;;;;;;;20.20;99.90;;;;;;8408029;28;19920;-73
2022/09/08 17:17:29;;;;;;;;;;;20.10;99.90;;;;;;8400666;28;19927;-73
2022/09/08 17:21:51;;;;;;;;;;;20.00;99.90;;;;;;8400886;28;20066;-72
2022/09/08 17:25:55;;;;;;;;;;;19.90;99.90;;;;;;8383309;28;20322;-73
2022/09/08 17:30:08;;;;;;;;;;;19.90;99.90;;;;;;8397877;28;20409;-72
2022/09/08 17:34:16;;;;;;;;;;;19.90;99.90;;;;;;8398234;28;20291;-72
2022/09/08 17:38:30;;;;;;;;;;;19.90;99.90;;;;;;8392274;28;19920;-73
2022/09/08 17:42:40;;;;;;;;;;;19.80;99.90;;;;;;8395715;28;19924;-73
2022/09/08 17:46:42;;;;;;;;;;;19.80;99.90;;;;;;8395550;28;19969;-73
2022/09/08 17:50:53;;;;;;;;;;;19.80;99.90;;;;;;8387612;28;20023;-73
2022/09/08 17:55:20;;;;;;;;;;;19.70;99.90;;;;;;8400835;28;20010;-73
2022/09/08 17:59:41;;;;;;;;;;;19.60;99.90;;;;;;8388261;28;19932;-73
2022/09/08 18:04:01;;;;;;;;;;;19.60;99.90;;;;;;8389205;28;19925;-72
2022/09/08 18:08:18;;;;;;;;;;;19.50;99.90;;;;;;8402504;28;19946;-73
2022/09/08 18:12:29;;;;;;;;;;;19.40;99.90;;;;;;8406795;28;19924;-73
2022/09/08 18:16:35;;;;;;;;;;;19.40;99.90;;;;;;8408161;28;19920;-74
2022/09/08 18:20:38;;;;;;;;;;;19.40;99.90;;;;;;8411651;28;19924;-73
2022/09/08 18:24:40;;;;;;;;;;;19.30;99.90;;;;;;8407836;28;19927;-73
2022/09/08 18:28:48;;;;;;;;;;;19.30;99.90;;;;;;8411845;28;20290;-73
2022/09/08 18:32:52;;;;;;;;;;;19.20;99.90;;;;;;8383854;28;20003;-72
2022/09/08 18:36:54;;;;;;;;;;;19.20;99.90;;;;;;8407957;28;19931;-73
2022/09/08 18:41:03;;;;;;;;;;;19.10;99.90;;;;;;8404946;28;20367;-73
2022/09/08 18:45:16;;;;;;;;;;;19.10;99.90;;;;;;8409008;28;20015;-72
2022/09/08 18:49:38;;;;;;;;;;;19.00;99.90;;;;;;8409915;28;19919;-72
2022/09/08 18:53:56;;;;;;;;;;;18.90;99.90;;;;;;8401019;28;20351;-72
2022/09/08 18:58:12;;;;;;;;;;;18.80;99.90;;;;;;8400379;28;19932;-73
2022/09/08 19:02:37;;;;;;;;;;;18.70;99.90;;;;;;8381056;28;19981;-72
2022/09/08 19:06:58;;;;;;;;;;;18.70;99.90;;;;;;8381677;28;19962;-72
2022/09/08 19:11:17;;;;;;;;;;;18.60;99.90;;;;;;8395500;28;20492;-72
2022/09/08 19:15:31;;;;;;;;;;;18.60;99.90;;;;;;8395346;28;19920;-72
2022/09/08 19:19:35;;;;;;;;;;;18.60;99.90;;;;;;8389426;28;20267;-72
2022/09/08 19:23:38;;;;;;;;;;;18.50;99.90;;;;;;8382632;28;20307;-73
2022/09/08 19:27:49;;;;;;;;;;;18.50;99.90;;;;;;8383458;28;20367;-72
2022/09/08 19:31:53;;;;;;;;;;;18.50;99.90;;;;;;8386315;28;19998;-73
2022/09/08 19:36:04;;;;;;;;;;;18.50;99.90;;;;;;8387403;28;19935;-72
2022/09/08 19:40:09;;;;;;;;;;;18.40;99.90;;;;;;8391611;28;20377;-72
2022/09/08 19:44:30;;;;;;;;;;;18.40;99.90;;;;;;8380521;28;19927;-72
2022/09/08 19:48:40;;;;;;;;;;;18.40;99.90;;;;;;8397301;28;19942;-72
2022/09/08 19:52:45;;;;;;;;;;;18.30;99.90;;;;;;8394230;28;19926;-72
2022/09/08 19:56:52;;;;;;;;;;;18.20;99.90;;;;;;8398848;28;19963;-73
2022/09/08 20:01:23;;;;;;;;;;;18.20;99.90;;;;;;8393501;28;19928;-72
2022/09/08 20:05:25;;;;;;;;;;;18.20;99.90;;;;;;8359909;28;19931;-73
2022/09/08 20:14:43;;;;;;;;;;;18.00;99.90;;;;;;8393256;28;19920;-73
2022/09/08 20:18:48;;;;;;;;;;;18.00;99.90;;;;;;8395533;28;20015;-72
2022/09/08 20:23:08;;;;;;;;;;;18.00;99.90;;;;;;8393280;28;20397;-73
2022/09/08 20:27:10;;;;;;;;;;;18.00;99.90;;;;;;8391690;28;19934;-72
2022/09/08 20:31:30;;;;;;;;;;;17.90;99.90;;;;;;8394770;28;20269;-72
2022/09/08 20:35:57;;;;;;;;;;;17.90;99.90;;;;;;8400342;28;19989;-73
2022/09/08 20:40:18;;;;;;;;;;;17.80;99.90;;;;;;8394751;28;19942;-72
2022/09/08 20:44:23;;;;;;;;;;;17.80;99.90;;;;;;8392446;28;19930;-73
2022/09/08 20:48:26;;;;;;;;;;;17.80;99.90;;;;;;8398286;28;19924;-72
2022/09/08 20:52:36;;;;;;;;;;;17.80;99.90;;;;;;8394285;28;19956;-73
2022/09/08 20:56:44;;;;;;;;;;;17.80;99.90;;;;;;8374584;28;19928;-73
2022/09/08 21:00:50;;;;;;;;;;;17.70;99.90;;;;;;8392556;28;19921;-72
2022/09/08 21:05:11;;;;;;;;;;;17.70;99.90;;;;;;8418479;28;20021;-73
2022/09/08 21:09:23;;;;;;;;;;;17.70;99.90;;;;;;8420804;28;19928;-72
2022/09/08 21:13:51;;;;;;;;;;;17.70;99.90;;;;;;8426192;28;19979;-72
2022/09/08 21:17:53;;;;;;;;;;;17.70;99.90;;;;;;8419899;28;19920;-73
2022/09/08 21:22:00;;;;;;;;;;;17.70;99.90;;;;;;8420899;28;19920;-73
2022/09/08 21:26:20;;;;;;;;;;;17.60;99.90;;;;;;8423544;28;19971;-72
2022/09/08 21:30:22;;;;;;;;;;;17.60;99.90;;;;;;8426969;28;20371;-72
2022/09/08 21:34:43;;;;;;;;;;;17.60;99.90;;;;;;8432575;28;20014;-72
2022/09/08 21:38:49;;;;;;;;;;;17.60;99.90;;;;;;8412619;28;20312;-72
2022/09/08 21:42:52;;;;;;;;;;;17.50;99.90;;;;;;8427119;28;19926;-72
2022/09/08 21:46:57;;;;;;;;;;;17.40;99.90;;;;;;8430978;28;19934;-72
2022/09/08 21:50:59;;;;;;;;;;;17.40;99.90;;;;;;8424466;28;19927;-72
2022/09/08 21:55:07;;;;;;;;;;;17.30;99.90;;;;;;8414944;28;20635;-72
2022/09/08 21:59:13;;;;;;;;;;;17.30;99.90;;;;;;8423175;28;19923;-72
2022/09/08 22:03:38;;;;;;;;;;;17.20;99.90;;;;;;8418743;28;19942;-72
2022/09/08 22:07:41;;;;;;;;;;;17.20;99.90;;;;;;8419017;28;19932;-72
2022/09/08 22:11:52;;;;;;;;;;;17.20;99.90;;;;;;8416472;28;19920;-72
2022/09/08 22:16:14;;;;;;;;;;;17.20;99.90;;;;;;8404156;28;19932;-72
2022/09/08 22:20:20;;;;;;;;;;;17.10;99.90;;;;;;8428357;28;19927;-73
2022/09/08 22:24:38;;;;;;;;;;;17.10;99.90;;;;;;8434028;28;19920;-72
2022/09/08 22:28:39;;;;;;;;;;;17.00;99.90;;;;;;8428739;28;19928;-72
2022/09/08 22:32:44;;;;;;;;;;;17.00;99.90;;;;;;8424204;28;19920;-72
2022/09/08 22:36:51;;;;;;;;;;;16.90;99.90;;;;;;8422740;28;20002;-72
2022/09/08 22:40:56;;;;;;;;;;;16.90;99.90;;;;;;8412643;28;20027;-72
2022/09/08 22:45:00;;;;;;;;;;;16.90;99.90;;;;;;8423619;28;19924;-72
2022/09/08 22:49:23;;;;;;;;;;;16.90;99.90;;;;;;8419191;28;20490;-73
2022/09/08 22:53:25;;;;;;;;;;;16.90;99.90;;;;;;8415250;28;19920;-72
2022/09/08 22:57:28;;;;;;;;;;;16.90;99.90;;;;;;8416319;28;20356;-72
2022/09/08 23:01:38;;;;;;;;;;;16.90;99.90;;;;;;8408102;28;19967;-72
2022/09/08 23:05:52;;;;;;;;;;;16.90;99.90;;;;;;8406366;28;19920;-73
2022/09/08 23:10:12;;;;;;;;;;;16.90;99.90;;;;;;8429884;28;19924;-72
2022/09/08 23:14:14;;;;;;;;;;;16.90;99.90;;;;;;8420446;28;20291;-72
2022/09/08 23:18:30;;;;;;;;;;;16.90;99.90;;;;;;8428878;28;19920;-72
2022/09/08 23:22:51;;;;;;;;;;;16.80;99.90;;;;;;8419526;28;19933;-72
2022/09/08 23:26:59;;;;;;;;;;;16.80;99.90;;;;;;8437486;28;19923;-72
2022/09/08 23:31:19;;;;;;;;;;;16.80;99.90;;;;;;8412021;28;19928;-72
2022/09/08 23:35:24;;;;;;;;;;;16.80;99.90;;;;;;8415945;28;19920;-73
2022/09/08 23:39:54;;;;;;;;;;;16.80;99.90;;;;;;8414692;28;20387;-72
2022/09/08 23:43:57;;;;;;;;;;;16.80;99.90;;;;;;8408160;28;19920;-72
2022/09/08 23:48:00;;;;;;;;;;;16.80;99.90;;;;;;8417064;28;19926;-72
2022/09/08 23:52:03;;;;;;;;;;;16.80;99.90;;;;;;8423521;28;19928;-72
2022/09/08 23:56:08;;;;;;;;;;;16.80;99.90;;;;;;8422294;28;20325;-72
